Time;durP1;ratioP1;P1;durP2;ratioP2;P2;SDS_P1;SDS_P2;PMS_P1;PMS_P2;Temp;Humidity;BMP_temperature;BMP_pressure;BME280_temperature;BME280_humidity;BME280_pressure;Samples;Min_cycle;Max_cycle;Signal;HPM_P1;HPM_P2
2022/06/09 00:00:28;;;;;;;27.73;20.47;;;;;;;;;;6266410;28;20017;-80
2022/06/09 00:03:33;;;;;;;32.43;21.77;;;;;;;;;;6271893;28;20012;-80
2022/06/09 00:06:39;;;;;;;30.70;20.00;;;;;;;;;;6271491;28;20017;-80
2022/06/09 00:09:52;;;;;;;33.92;21.55;;;;;;;;;;6272800;28;20065;-81
2022/06/09 00:12:52;;;;;;;32.85;21.80;;;;;;;;;;6272936;28;20021;-80
2022/06/09 00:15:52;;;;;;;29.93;20.17;;;;;;;;;;6273939;28;20035;-81
2022/06/09 00:18:53;;;;;;;32.47;22.70;;;;;;;;;;6273878;28;20023;-80
2022/06/09 00:21:53;;;;;;;36.47;23.73;;;;;;;;;;6275303;28;20729;-80
2022/06/09 00:24:53;;;;;;;36.87;23.53;;;;;;;;;;6275556;28;20036;-80
2022/06/09 00:27:54;;;;;;;32.83;24.07;;;;;;;;;;6274990;28;20464;-80
2022/06/09 00:30:54;;;;;;;36.03;25.97;;;;;;;;;;6273388;28;20044;-80
2022/06/09 00:33:54;;;;;;;38.97;26.77;;;;;;;;;;6267637;28;20095;-80
2022/06/09 00:36:54;;;;;;;33.33;23.73;;;;;;;;;;6270042;28;20108;-80
2022/06/09 00:39:55;;;;;;;33.30;22.37;;;;;;;;;;6273989;28;20073;-81
2022/06/09 00:42:55;;;;;;;37.03;24.77;;;;;;;;;;6265975;28;20013;-81
2022/06/09 00:46:01;;;;;;;39.77;23.57;;;;;;;;;;6270734;28;20029;-80
2022/06/09 00:49:04;;;;;;;34.15;23.45;;;;;;;;;;6271746;28;20016;-80
2022/06/09 00:52:06;;;;;;;32.13;21.42;;;;;;;;;;6272792;28;20013;-80
2022/06/09 00:55:11;;;;;;;31.67;21.08;;;;;;;;;;6272332;28;20377;-81
2022/06/09 00:58:15;;;;;;;31.38;19.67;;;;;;;;;;6270959;28;20025;-81
2022/06/09 01:01:16;;;;;;;32.60;20.13;;;;;;;;;;6273436;28;20001;-80
2022/06/09 01:04:17;;;;;;;36.80;21.98;;;;;;;;;;6273098;28;20074;-80
2022/06/09 01:07:20;;;;;;;32.50;21.57;;;;;;;;;;6272055;28;20009;-80
2022/06/09 01:10:20;;;;;;;31.85;21.50;;;;;;;;;;6272057;28;20013;-80
2022/06/09 01:13:21;;;;;;;29.87;21.97;;;;;;;;;;6266646;28;20028;-80
2022/06/09 01:16:28;;;;;;;28.33;20.63;;;;;;;;;;6273623;28;20009;-81
2022/06/09 01:19:49;;;;;;;33.25;22.40;;;;;;;;;;6273181;28;20028;-80
2022/06/09 01:22:50;;;;;;;32.67;23.10;;;;;;;;;;6271353;28;20037;-80
2022/06/09 01:26:09;;;;;;;35.47;23.70;;;;;;;;;;6271442;28;20021;-79
2022/06/09 01:29:18;;;;;;;40.72;26.20;;;;;;;;;;6267170;28;20126;-77
2022/06/09 01:32:20;;;;;;;39.45;25.63;;;;;;;;;;6266678;28;20020;-77
2022/06/09 01:35:27;;;;;;;39.90;26.02;;;;;;;;;;6267723;28;20395;-78
2022/06/09 01:38:27;;;;;;;42.40;25.25;;;;;;;;;;6267375;28;20067;-78
2022/06/09 01:41:27;;;;;;;36.90;25.27;;;;;;;;;;6267801;28;20009;-80
2022/06/09 01:44:28;;;;;;;44.87;25.83;;;;;;;;;;6271457;28;20025;-79
2022/06/09 01:47:32;;;;;;;39.93;26.37;;;;;;;;;;6270875;28;20020;-79
2022/06/09 01:50:38;;;;;;;36.15;23.98;;;;;;;;;;6264715;28;20021;-79
2022/06/09 01:53:41;;;;;;;33.85;21.80;;;;;;;;;;6269441;28;20035;-78
2022/06/09 01:56:50;;;;;;;34.95;21.13;;;;;;;;;;6269049;28;20040;-78
2022/06/09 01:59:52;;;;;;;28.23;19.65;;;;;;;;;;6269275;28;20464;-78
2022/06/09 02:02:54;;;;;;;21.67;15.65;;;;;;;;;;6268436;28;20025;-78
2022/06/09 02:05:55;;;;;;;39.67;21.70;;;;;;;;;;6271084;28;20039;-78
2022/06/09 02:08:55;;;;;;;34.27;20.13;;;;;;;;;;6266308;28;20032;-79
2022/06/09 02:11:56;;;;;;;31.97;20.77;;;;;;;;;;6264875;28;20049;-78
2022/06/09 02:14:58;;;;;;;34.63;22.40;;;;;;;;;;6270569;28;20080;-79
2022/06/09 02:17:58;;;;;;;;;;;;;;;;;;6269368;28;20388;-78
2022/06/09 02:21:02;;;;;;;28.63;19.73;;;;;;;;;;6267492;28;20355;-78
2022/06/09 02:24:03;;;;;;;32.30;19.73;;;;;;;;;;6266487;28;20048;-79
2022/06/09 02:27:04;;;;;;;32.17;19.53;;;;;;;;;;6266482;28;20017;-78
2022/06/09 02:30:05;;;;;;;34.97;21.37;;;;;;;;;;6267582;28;20032;-78
2022/06/09 02:33:06;;;;;;;30.00;19.77;;;;;;;;;;6268071;28;20029;-78
2022/06/09 02:36:06;;;;;;;29.10;18.97;;;;;;;;;;6268339;28;20032;-79
2022/06/09 02:39:06;;;;;;;33.43;22.73;;;;;;;;;;6266729;28;20028;-79
2022/06/09 02:42:07;;;;;;;30.20;20.43;;;;;;;;;;6268062;28;20036;-79
2022/06/09 02:45:08;;;;;;;30.23;19.17;;;;;;;;;;6261231;28;20021;-78
2022/06/09 02:48:09;;;;;;;28.23;19.07;;;;;;;;;;6268771;28;20013;-79
2022/06/09 02:51:16;;;;;;;28.67;19.23;;;;;;;;;;6265989;28;20025;-79
2022/06/09 02:54:16;;;;;;;30.52;20.23;;;;;;;;;;6266242;28;20039;-79
2022/06/09 02:57:16;;;;;;;33.60;21.80;;;;;;;;;;6265133;28;20021;-78
2022/06/09 03:00:17;;;;;;;30.17;20.27;;;;;;;;;;6268514;28;20419;-80
2022/06/09 03:03:17;;;;;;;29.27;18.80;;;;;;;;;;6269058;28;20401;-78
2022/06/09 03:06:18;;;;;;;28.17;18.97;;;;;;;;;;6273741;28;20100;-79
2022/06/09 03:09:18;;;;;;;24.73;17.80;;;;;;;;;;6273815;28;20454;-80
2022/06/09 03:12:18;;;;;;;24.87;17.73;;;;;;;;;;6274674;28;20017;-79
2022/06/09 03:15:20;;;;;;;25.33;16.60;;;;;;;;;;6269729;28;20025;-78
2022/06/09 03:18:21;;;;;;;29.13;17.35;;;;;;;;;;6263261;28;20104;-79
2022/06/09 03:21:21;;;;;;;22.73;16.57;;;;;;;;;;6274713;28;20045;-79
2022/06/09 03:24:21;;;;;;;24.60;16.17;;;;;;;;;;6272936;28;20056;-80
2022/06/09 03:27:22;;;;;;;22.27;14.63;;;;;;;;;;6273955;28;20469;-79
2022/06/09 03:30:22;;;;;;;18.90;13.07;;;;;;;;;;6275389;28;20388;-79
2022/06/09 03:33:22;;;;;;;20.67;13.37;;;;;;;;;;6274291;28;20044;-79
2022/06/09 03:36:22;;;;;;;20.47;13.37;;;;;;;;;;6271498;28;20025;-79
2022/06/09 03:39:23;;;;;;;29.23;14.80;;;;;;;;;;6271160;28;20090;-79
2022/06/09 03:42:23;;;;;;;19.37;14.20;;;;;;;;;;6273079;28;20021;-79
2022/06/09 03:45:23;;;;;;;19.17;14.60;;;;;;;;;;6272527;28;20453;-79
2022/06/09 03:48:24;;;;;;;17.90;12.30;;;;;;;;;;6275243;28;20021;-80
2022/06/09 03:51:24;;;;;;;18.50;11.87;;;;;;;;;;6275700;28;20048;-80
2022/06/09 03:54:24;;;;;;;17.03;12.37;;;;;;;;;;6275912;28;20024;-79
2022/06/09 03:57:25;;;;;;;15.67;12.57;;;;;;;;;;6271939;28;20036;-79
2022/06/09 04:00:26;;;;;;;18.60;12.47;;;;;;;;;;6273683;28;20469;-78
2022/06/09 04:03:27;;;;;;;14.50;11.52;;;;;;;;;;6272630;28;20032;-79
2022/06/09 04:06:27;;;;;;;16.47;10.03;;;;;;;;;;6274681;28;20017;-79
2022/06/09 04:09:27;;;;;;;17.90;10.17;;;;;;;;;;6273151;28;20055;-79
2022/06/09 04:12:28;;;;;;;18.20;11.93;;;;;;;;;;6274347;28;20028;-79
2022/06/09 04:15:28;;;;;;;16.33;11.73;;;;;;;;;;6275151;28;20021;-79
2022/06/09 04:18:29;;;;;;;12.67;9.90;;;;;;;;;;6274220;28;20025;-79
2022/06/09 04:21:30;;;;;;;14.83;10.17;;;;;;;;;;6274113;28;20044;-80
2022/06/09 04:24:31;;;;;;;14.07;11.27;;;;;;;;;;6272228;28;20492;-79
2022/06/09 04:27:31;;;;;;;17.23;10.77;;;;;;;;;;6270271;28;20037;-80
2022/06/09 04:30:31;;;;;;;13.97;10.43;;;;;;;;;;6272644;28;20421;-80
2022/06/09 04:33:32;;;;;;;16.60;9.67;;;;;;;;;;6274838;28;20029;-81
2022/06/09 04:36:32;;;;;;;12.47;9.57;;;;;;;;;;6273956;28;20549;-81
2022/06/09 04:39:32;;;;;;;14.60;10.97;;;;;;;;;;6274574;28;20017;-81
2022/06/09 04:42:33;;;;;;;13.57;9.53;;;;;;;;;;6273216;28;20021;-81
2022/06/09 04:45:33;;;;;;;14.43;10.93;;;;;;;;;;6270269;28;20074;-81
2022/06/09 04:48:34;;;;;;;15.70;10.57;;;;;;;;;;6273467;28;20096;-82
2022/06/09 04:51:35;;;;;;;13.85;9.52;;;;;;;;;;6271885;28;20028;-81
2022/06/09 04:54:35;;;;;;;14.23;9.13;;;;;;;;;;6272539;28;20020;-81
2022/06/09 04:57:35;;;;;;;14.07;8.67;;;;;;;;;;6264846;28;20013;-80
2022/06/09 05:00:36;;;;;;;14.27;7.97;;;;;;;;;;6267932;28;20025;-80
2022/06/09 05:03:36;;;;;;;13.00;8.70;;;;;;;;;;6263828;28;20396;-80
2022/06/09 05:06:37;;;;;;;15.50;8.63;;;;;;;;;;6258880;28;20017;-80
2022/06/09 05:09:37;;;;;;;11.80;7.97;;;;;;;;;;6261820;28;21480;-79
2022/06/09 05:12:37;;;;;;;11.77;9.10;;;;;;;;;;6274452;28;20429;-78
2022/06/09 05:15:42;;;;;;;18.93;9.83;;;;;;;;;;6257871;28;20017;-78
2022/06/09 05:18:42;;;;;;;12.93;8.75;;;;;;;;;;6261902;28;20017;-78
2022/06/09 05:21:42;;;;;;;13.60;8.67;;;;;;;;;;6254161;28;20484;-78
2022/06/09 05:24:43;;;;;;;13.33;7.93;;;;;;;;;;6255526;28;20438;-78
2022/06/09 05:27:44;;;;;;;14.53;7.03;;;;;;;;;;6261585;28;20025;-78
2022/06/09 05:30:44;;;;;;;10.70;6.65;;;;;;;;;;6263135;28;20021;-78
2022/06/09 05:33:44;;;;;;;11.30;7.40;;;;;;;;;;6266537;28;20016;-79
2022/06/09 05:36:45;;;;;;;11.67;6.27;;;;;;;;;;6265541;28;20045;-78
2022/06/09 05:46:23;;;;;;;11.75;9.65;;;;;;;;;;6257708;28;20496;-78
2022/06/09 05:49:23;;;;;;;12.63;9.03;;;;;;;;;;6254674;28;20021;-79
2022/06/09 05:52:25;;;;;;;13.13;9.20;;;;;;;;;;6265850;28;20016;-78
2022/06/09 05:55:25;;;;;;;12.45;7.75;;;;;;;;;;6259160;28;20045;-78
2022/06/09 05:58:25;;;;;;;12.30;9.00;;;;;;;;;;6267096;28;20028;-79
2022/06/09 06:01:26;;;;;;;12.27;8.10;;;;;;;;;;6278534;28;20122;-78
2022/06/09 06:04:26;;;;;;;11.50;7.23;;;;;;;;;;6262071;28;20477;-78
2022/06/09 06:07:26;;;;;;;13.33;7.97;;;;;;;;;;6262118;28;20044;-78
2022/06/09 06:10:26;;;;;;;12.67;8.60;;;;;;;;;;6263007;28;20017;-79
2022/06/09 06:13:27;;;;;;;18.17;8.57;;;;;;;;;;6264097;28;20021;-79
2022/06/09 06:16:27;;;;;;;16.07;9.73;;;;;;;;;;6267438;28;20557;-78
2022/06/09 06:19:27;;;;;;;17.30;10.57;;;;;;;;;;6260216;28;20166;-79
2022/06/09 06:22:28;;;;;;;14.87;9.97;;;;;;;;;;6255720;28;20061;-78
2022/06/09 06:25:28;;;;;;;15.03;9.27;;;;;;;;;;6272279;28;20009;-78
2022/06/09 06:28:28;;;;;;;11.07;8.07;;;;;;;;;;6266640;28;20044;-78
2022/06/09 06:31:28;;;;;;;16.60;10.17;;;;;;;;;;6271356;28;20062;-79
2022/06/09 06:34:29;;;;;;;9.97;7.47;;;;;;;;;;6267766;28;20017;-78
2022/06/09 06:37:29;;;;;;;12.97;7.97;;;;;;;;;;6260762;28;20117;-78
2022/06/09 06:40:29;;;;;;;12.90;8.47;;;;;;;;;;6261663;28;20021;-78
2022/06/09 06:43:30;;;;;;;12.67;8.27;;;;;;;;;;6264309;28;20028;-78
2022/06/09 06:46:30;;;;;;;15.70;11.20;;;;;;;;;;6264518;28;20284;-77
2022/06/09 06:49:30;;;;;;;15.63;11.70;;;;;;;;;;6258750;28;20040;-78
2022/06/09 06:52:30;;;;;;;14.40;10.33;;;;;;;;;;6265441;28;20035;-77
2022/06/09 06:55:31;;;;;;;17.40;13.30;;;;;;;;;;6265464;28;20523;-78
2022/06/09 06:58:31;;;;;;;18.43;15.40;;;;;;;;;;6257205;28;20032;-78
2022/06/09 07:01:32;;;;;;;16.77;12.50;;;;;;;;;;6268445;28;20124;-78
2022/06/09 07:04:32;;;;;;;24.77;15.95;;;;;;;;;;6268023;28;20028;-77
2022/06/09 07:07:32;;;;;;;20.50;14.40;;;;;;;;;;6269099;28;20643;-78
2022/06/09 07:10:33;;;;;;;20.07;14.63;;;;;;;;;;6269870;28;20013;-78
2022/06/09 07:13:36;;;;;;;19.45;14.48;;;;;;;;;;6267957;28;20020;-78
2022/06/09 07:16:36;;;;;;;20.35;14.90;;;;;;;;;;6265382;28;20021;-77
2022/06/09 07:19:37;;;;;;;18.63;14.30;;;;;;;;;;6269411;28;20028;-77
2022/06/09 07:22:37;;;;;;;21.02;16.38;;;;;;;;;;6262371;28;20049;-78
2022/06/09 07:25:38;;;;;;;20.92;15.88;;;;;;;;;;6263948;28;20078;-78
2022/06/09 07:28:38;;;;;;;20.90;16.00;;;;;;;;;;6263763;28;20009;-78
2022/06/09 07:31:38;;;;;;;21.03;15.67;;;;;;;;;;6265287;28;20087;-78
2022/06/09 07:34:39;;;;;;;19.87;16.93;;;;;;;;;;6263508;28;20100;-79
2022/06/09 07:37:39;;;;;;;20.70;16.30;;;;;;;;;;6266558;28;20024;-78
2022/06/09 07:40:41;;;;;;;22.07;16.00;;;;;;;;;;6268580;28;20523;-78
2022/06/09 07:43:41;;;;;;;19.33;15.88;;;;;;;;;;6264639;28;20028;-77
2022/06/09 07:46:41;;;;;;;20.17;16.47;;;;;;;;;;6258175;28;20021;-78
2022/06/09 07:49:41;;;;;;;20.60;15.70;;;;;;;;;;6269821;28;20790;-78
2022/06/09 07:52:43;;;;;;;18.20;15.20;;;;;;;;;;6266653;28;20033;-78
2022/06/09 07:55:44;;;;;;;18.67;14.90;;;;;;;;;;6264435;28;20021;-78
2022/06/09 07:58:45;;;;;;;22.47;13.33;;;;;;;;;;6267134;28;20063;-76
2022/06/09 08:01:46;;;;;;;21.20;14.35;;;;;;;;;;6271270;28;20017;-76
2022/06/09 08:04:46;;;;;;;16.45;13.05;;;;;;;;;;6267670;28;20022;-75
2022/06/09 08:07:46;;;;;;;17.80;13.93;;;;;;;;;;6273005;28;20428;-76
2022/06/09 08:10:47;;;;;;;17.83;14.80;;;;;;;;;;6268073;28;20009;-76
2022/06/09 08:13:47;;;;;;;19.38;13.38;;;;;;;;;;6274110;28;20035;-76
2022/06/09 08:16:48;;;;;;;19.07;15.57;;;;;;;;;;6270961;28;20520;-76
2022/06/09 08:19:48;;;;;;;;;;;;;;;;;;6261932;28;20058;-76
2022/06/09 08:22:49;;;;;;;19.63;15.40;;;;;;;;;;6268442;28;19917;-76
2022/06/09 08:25:49;;;;;;;;;;;;;;;;;;6266030;28;20264;-76
2022/06/09 08:28:49;;;;;;;21.50;14.93;;;;;;;;;;6273237;28;20361;-76
2022/06/09 08:31:49;;;;;;;;;;;;;;;;;;6248884;28;20025;-76
2022/06/09 08:34:49;;;;;;;18.13;13.30;;;;;;;;;;6273515;28;19909;-76
2022/06/09 08:37:51;;;;;;;;;;;;;;;;;;6273838;28;20017;-75
2022/06/09 08:41:00;;;;;;;19.70;13.93;;;;;;;;;;6272530;28;19995;-77
2022/06/09 08:44:11;;;;;;;15.60;12.18;;;;;;;;;;6271638;28;20845;-77
2022/06/09 08:47:12;;;;;;;16.67;13.80;;;;;;;;;;6273573;28;20481;-77
2022/06/09 08:50:12;;;;;;;;;;;;;;;;;;6273430;28;20021;-77
2022/06/09 08:53:15;;;;;;;18.55;13.13;;;;;;;;;;6284446;28;19935;-77
2022/06/09 08:56:34;;;;;;;15.73;12.60;;;;;;;;;;6265940;28;20021;-77
2022/06/09 08:59:37;;;;;;;15.98;14.05;;;;;;;;;;6262174;28;20016;-77
2022/06/09 09:02:39;;;;;;;19.45;13.57;;;;;;;;;;6265790;28;20437;-77
2022/06/09 09:05:43;;;;;;;16.08;13.60;;;;;;;;;;6267049;28;20064;-77
2022/06/09 09:08:43;;;;;;;19.42;14.63;;;;;;;;;;6266355;28;20017;-77
2022/06/09 09:11:43;;;;;;;17.53;12.97;;;;;;;;;;6265436;28;20548;-77
2022/06/09 09:15:19;;;;;;;16.47;12.67;;;;;;;;;;6283459;28;20395;-77
2022/06/09 09:18:35;;;;;;;16.17;14.43;;;;;;;;;;6193307;28;20026;-77
2022/06/09 09:21:44;;;;;;;13.93;11.88;;;;;;;;;;6269924;28;20068;-77
2022/06/09 09:24:53;;;;;;;17.48;12.30;;;;;;;;;;6271661;28;20027;-77
2022/06/09 09:28:05;;;;;;;17.08;13.32;;;;;;;;;;6265593;28;20439;-77
2022/06/09 09:31:05;;;;;;;15.90;13.15;;;;;;;;;;6265239;28;20017;-77
2022/06/09 09:34:06;;;;;;;;;;;;;;;;;;6266925;28;20017;-77
2022/06/09 09:37:32;;;;;;;17.55;13.65;;;;;;;;;;6268320;28;19912;-77
2022/06/09 09:40:32;;;;;;;19.33;13.70;;;;;;;;;;6261285;28;20042;-77
2022/06/09 09:43:33;;;;;;;;;;;;;;;;;;6266981;28;20082;-76
2022/06/09 09:46:33;;;;;;;15.50;13.80;;;;;;;;;;6263792;28;20016;-77
2022/06/09 09:49:33;;;;;;;;;;;;;;;;;;6242341;28;20052;-76
2022/06/09 09:52:44;;;;;;;16.30;12.85;;;;;;;;;;6263169;28;19924;-76
2022/06/09 09:55:57;;;;;;;16.13;13.02;;;;;;;;;;6265976;28;20017;-76
2022/06/09 09:58:58;;;;;;;17.13;12.48;;;;;;;;;;6265888;28;20048;-76
2022/06/09 10:09:06;;;;;;;16.15;12.77;;;;;;;;;;6264635;28;20077;-76
2022/06/09 10:12:27;;;;;;;19.98;12.95;;;;;;;;;;6268229;28;20414;-77
2022/06/09 10:15:27;;;;;;;14.02;11.75;;;;;;;;;;6265105;28;20366;-76
2022/06/09 10:18:27;;;;;;;18.17;12.07;;;;;;;;;;6270406;28;20012;-76
2022/06/09 10:21:46;;;;;;;13.53;11.13;;;;;;;;;;6268656;28;20485;-76
2022/06/09 10:24:56;;;;;;;15.07;11.80;;;;;;;;;;6270187;28;20025;-76
2022/06/09 10:28:00;;;;;;;13.23;11.45;;;;;;;;;;6270765;28;20063;-76
2022/06/09 10:31:00;;;;;;;13.75;11.10;;;;;;;;;;6269222;28;20477;-76
2022/06/09 10:34:21;;;;;;;13.73;11.47;;;;;;;;;;6262794;28;20064;-76
2022/06/09 10:37:25;;;;;;;13.05;9.80;;;;;;;;;;6261157;28;20025;-76
2022/06/09 10:40:25;;;;;;;11.90;10.05;;;;;;;;;;6272242;28;20447;-75
2022/06/09 10:43:25;;;;;;;13.83;10.50;;;;;;;;;;6269045;28;20017;-75
2022/06/09 10:46:28;;;;;;;14.67;11.53;;;;;;;;;;6268829;28;20051;-76
2022/06/09 10:56:15;;;;;;;12.55;10.45;;;;;;;;;;6269793;28;20025;-75
2022/06/09 10:59:42;;;;;;;12.98;10.30;;;;;;;;;;6260939;28;20078;-76
2022/06/09 11:02:49;;;;;;;13.65;9.88;;;;;;;;;;6245171;28;20112;-75
2022/06/09 11:06:01;;;;;;;11.15;9.05;;;;;;;;;;6262788;28;20437;-76
2022/06/09 11:09:14;;;;;;;13.13;9.80;;;;;;;;;;6266309;28;20029;-76
2022/06/09 11:12:20;;;;;;;15.95;11.43;;;;;;;;;;6259356;28;20024;-76
2022/06/09 11:15:20;;;;;;;11.88;9.02;;;;;;;;;;6267453;28;20060;-76
2022/06/09 11:18:36;;;;;;;16.47;12.33;;;;;;;;;;6263886;28;20029;-76
2022/06/09 11:21:58;;;;;;;20.25;13.70;;;;;;;;;;6263317;28;20459;-77
2022/06/09 11:25:34;;;;;;;26.50;17.20;;;;;;;;;;6263122;28;20025;-77
2022/06/09 11:28:40;;;;;;;23.10;15.65;;;;;;;;;;6197530;28;20117;-77
2022/06/09 11:31:58;;;;;;;24.85;16.23;;;;;;;;;;6268363;28;20029;-77
2022/06/09 11:35:04;;;;;;;21.73;17.05;;;;;;;;;;6273186;28;20095;-75
2022/06/09 11:38:17;;;;;;;24.27;16.65;;;;;;;;;;6278983;28;20662;-75
2022/06/09 11:41:37;;;;;;;25.45;16.73;;;;;;;;;;6272478;28;20066;-75
2022/06/09 11:44:41;;;;;;;23.67;17.02;;;;;;;;;;6261587;28;20112;-74
2022/06/09 11:47:42;;;;;;;24.77;17.10;;;;;;;;;;6259149;28;20172;-74
2022/06/09 11:50:44;;;;;;;20.90;16.08;;;;;;;;;;6266248;28;20040;-75
2022/06/09 11:53:47;;;;;;;24.73;16.38;;;;;;;;;;6267311;28;20021;-75
2022/06/09 11:57:07;;;;;;;22.67;15.98;;;;;;;;;;6269173;28;20021;-77
2022/06/09 12:00:26;;;;;;;25.30;15.67;;;;;;;;;;6267773;28;20035;-76
2022/06/09 12:03:45;;;;;;;21.65;15.95;;;;;;;;;;6261345;28;20140;-78
2022/06/09 12:06:45;;;;;;;19.27;15.23;;;;;;;;;;6261082;28;20058;-77
2022/06/09 12:09:52;;;;;;;25.37;16.60;;;;;;;;;;6275788;28;20032;-77
2022/06/09 12:13:04;;;;;;;19.55;15.32;;;;;;;;;;6268450;28;20025;-78
2022/06/09 12:16:18;;;;;;;15.55;13.23;;;;;;;;;;6273743;28;20108;-77
2022/06/09 12:19:21;;;;;;;18.38;13.95;;;;;;;;;;6270925;28;20108;-77
2022/06/09 12:22:27;;;;;;;17.63;13.00;;;;;;;;;;6271101;28;20506;-78
2022/06/09 12:25:33;;;;;;;18.63;12.55;;;;;;;;;;6286656;28;20033;-77
2022/06/09 12:29:03;;;;;;;19.48;14.30;;;;;;;;;;6262624;28;20027;-77
2022/06/09 12:32:09;;;;;;;20.77;13.35;;;;;;;;;;6226716;28;20033;-77
2022/06/09 12:35:16;;;;;;;22.08;15.20;;;;;;;;;;6272379;28;20024;-77
2022/06/09 12:38:28;;;;;;;19.20;14.98;;;;;;;;;;6268847;28;20057;-77
2022/06/09 12:41:34;;;;;;;20.85;13.68;;;;;;;;;;6263457;28;20096;-78
2022/06/09 12:44:40;;;;;;;19.15;12.98;;;;;;;;;;6265795;28;20757;-77
2022/06/09 12:48:04;;;;;;;16.50;12.85;;;;;;;;;;6268497;28;20024;-77
2022/06/09 12:51:08;;;;;;;17.45;11.25;;;;;;;;;;6254470;28;20680;-78
2022/06/09 12:54:18;;;;;;;16.67;13.18;;;;;;;;;;6269127;28;20028;-77
2022/06/09 12:57:23;;;;;;;13.50;10.93;;;;;;;;;;6266448;28;20495;-77
2022/06/09 13:00:32;;;;;;;14.98;11.27;;;;;;;;;;6264404;28;20021;-77
2022/06/09 13:03:41;;;;;;;13.90;11.75;;;;;;;;;;6269508;28;20040;-77
2022/06/09 13:06:41;;;;;;;16.27;13.18;;;;;;;;;;6268390;28;20070;-77
2022/06/09 13:09:41;;;;;;;13.83;11.10;;;;;;;;;;6266916;28;20382;-77
2022/06/09 13:12:51;;;;;;;16.47;12.60;;;;;;;;;;6264370;28;20436;-77
2022/06/09 13:16:02;;;;;;;15.37;11.87;;;;;;;;;;6265212;28;20033;-77
2022/06/09 13:19:04;;;;;;;17.27;12.15;;;;;;;;;;6259447;28;20021;-77
2022/06/09 13:22:06;;;;;;;16.67;12.10;;;;;;;;;;6263820;28;20081;-77
2022/06/09 13:25:11;;;;;;;14.52;11.88;;;;;;;;;;6265521;28;20059;-77
2022/06/09 13:28:23;;;;;;;14.38;12.45;;;;;;;;;;6263862;28;20056;-77
2022/06/09 13:31:30;;;;;;;18.38;12.52;;;;;;;;;;6265231;28;20056;-77
2022/06/09 13:34:33;;;;;;;14.20;12.38;;;;;;;;;;6257922;28;20040;-77
2022/06/09 13:37:39;;;;;;;17.63;12.35;;;;;;;;;;6259498;28;20027;-77
2022/06/09 13:40:41;;;;;;;16.38;11.35;;;;;;;;;;6262260;28;20052;-77
2022/06/09 13:43:50;;;;;;;15.27;11.63;;;;;;;;;;6263440;28;20032;-77
2022/06/09 13:47:01;;;;;;;16.88;10.85;;;;;;;;;;6260209;28;20056;-77
2022/06/09 13:50:04;;;;;;;15.30;11.43;;;;;;;;;;6264785;28;20025;-77
2022/06/09 13:53:22;;;;;;;16.48;11.82;;;;;;;;;;6263703;28;20100;-76
2022/06/09 13:56:22;;;;;;;19.85;12.38;;;;;;;;;;6255837;28;20033;-77
2022/06/09 13:59:22;;;;;;;24.00;14.10;;;;;;;;;;6263236;28;20036;-77
2022/06/09 14:02:24;;;;;;;17.42;13.10;;;;;;;;;;6265786;28;20583;-77
2022/06/09 14:05:25;;;;;;;25.85;14.63;;;;;;;;;;6269151;28;20025;-77
2022/06/09 14:08:27;;;;;;;20.35;14.30;;;;;;;;;;6266219;28;20084;-76
2022/06/09 14:11:28;;;;;;;22.45;13.60;;;;;;;;;;6268960;28;20062;-77
2022/06/09 14:14:29;;;;;;;17.25;11.52;;;;;;;;;;6267236;28;20021;-76
2022/06/09 14:17:29;;;;;;;15.07;9.77;;;;;;;;;;6266364;28;20029;-76
2022/06/09 14:20:30;;;;;;;15.03;10.27;;;;;;;;;;6271446;28;20036;-76
2022/06/09 14:23:32;;;;;;;14.50;9.85;;;;;;;;;;6264505;28;20063;-77
2022/06/09 14:26:34;;;;;;;;;;;;;;;;;;6258467;28;20602;-77
2022/06/09 14:29:34;;;;;;;20.10;12.35;;;;;;;;;;6259442;28;20175;-77
2022/06/09 14:32:34;;;;;;;;;;;;;;;;;;6266395;28;20021;-79
2022/06/09 14:35:34;;;;;;;29.23;14.80;;;;;;;;;;6268003;28;20373;-78
2022/06/09 14:38:34;;;;;;;24.17;12.80;;;;;;;;;;6263849;28;20036;-78
2022/06/09 14:41:35;;;;;;;26.27;14.67;;;;;;;;;;6265258;28;20382;-78
2022/06/09 14:44:36;;;;;;;28.17;14.75;;;;;;;;;;6261452;28;20401;-78
2022/06/09 14:47:36;;;;;;;17.10;9.93;;;;;;;;;;6267470;28;20094;-77
2022/06/09 14:50:36;;;;;;;;;;;;;;;;;;6269736;28;20295;-78
2022/06/09 14:53:36;;;;;;;19.20;9.90;;;;;;;;;;6270927;28;19916;-77
2022/06/09 14:56:36;;;;;;;;;;;;;;;;;;6261821;28;20032;-78
2022/06/09 14:59:37;;;;;;;12.35;7.68;;;;;;;;;;6266622;28;19916;-77
2022/06/09 15:02:37;;;;;;;;;;;;;;;;;;6265570;28;20029;-77
2022/06/09 15:05:38;;;;;;;11.15;7.03;;;;;;;;;;6265078;28;19908;-77
2022/06/09 15:08:38;;;;;;;;;;;;;;;;;;6266415;28;20070;-78
2022/06/09 15:11:38;;;;;;;10.93;7.78;;;;;;;;;;6270981;28;19915;-77
2022/06/09 15:14:38;;;;;;;11.37;5.57;;;;;;;;;;6270594;28;20021;-77
2022/06/09 15:17:39;;;;;;;14.10;5.07;;;;;;;;;;6270886;28;20035;-76
2022/06/09 15:20:40;;;;;;;8.18;4.40;;;;;;;;;;6262839;28;20049;-77
2022/06/09 15:23:41;;;;;;;7.53;5.05;;;;;;;;;;6267719;28;20090;-78
2022/06/09 15:26:41;;;;;;;6.80;5.00;;;;;;;;;;6266765;28;20021;-78
2022/06/09 15:29:42;;;;;;;6.88;3.05;;;;;;;;;;6267795;28;20051;-78
2022/06/09 15:32:42;;;;;;;8.67;4.00;;;;;;;;;;6281175;28;20017;-77
2022/06/09 15:35:43;;;;;;;7.07;4.30;;;;;;;;;;6269305;28;20263;-77
2022/06/09 15:38:43;;;;;;;7.73;4.23;;;;;;;;;;6270617;28;20021;-77
2022/06/09 15:41:43;;;;;;;10.40;4.87;;;;;;;;;;6268794;28;20021;-78
2022/06/09 15:44:44;;;;;;;6.00;3.73;;;;;;;;;;6265709;28;20032;-77
2022/06/09 15:47:44;;;;;;;5.80;4.13;;;;;;;;;;6273620;28;20043;-77
2022/06/09 15:50:44;;;;;;;13.47;4.30;;;;;;;;;;6264758;28;20009;-77
2022/06/09 15:53:45;;;;;;;6.73;4.37;;;;;;;;;;6268550;28;20024;-76
2022/06/09 15:56:45;;;;;;;8.03;3.97;;;;;;;;;;6265180;28;20058;-76
2022/06/09 15:59:45;;;;;;;5.70;3.37;;;;;;;;;;6268051;28;20021;-76
2022/06/09 16:02:46;;;;;;;5.03;2.83;;;;;;;;;;6267386;28;20029;-76
2022/06/09 16:05:49;;;;;;;8.07;4.13;;;;;;;;;;6273419;28;20071;-76
2022/06/09 16:08:49;;;;;;;5.50;4.18;;;;;;;;;;6267613;28;20017;-76
2022/06/09 16:11:50;;;;;;;6.63;3.57;;;;;;;;;;6271546;28;20037;-75
2022/06/09 16:14:50;;;;;;;6.73;3.87;;;;;;;;;;6266724;28;20036;-76
2022/06/09 16:17:50;;;;;;;9.13;4.00;;;;;;;;;;6268347;28;20025;-76
2022/06/09 16:20:52;;;;;;;5.90;3.50;;;;;;;;;;6266915;28;20045;-75
2022/06/09 16:23:52;;;;;;;4.93;3.28;;;;;;;;;;6270342;28;20546;-76
2022/06/09 16:26:52;;;;;;;4.57;3.30;;;;;;;;;;6265942;28;20017;-76
2022/06/09 16:29:52;;;;;;;4.80;3.27;;;;;;;;;;6268184;28;20020;-76
2022/06/09 16:32:53;;;;;;;6.87;3.37;;;;;;;;;;6262829;28;20484;-76
2022/06/09 16:35:53;;;;;;;4.30;2.70;;;;;;;;;;6261646;28;20009;-76
2022/06/09 16:38:54;;;;;;;4.90;3.47;;;;;;;;;;6270025;28;20045;-76
2022/06/09 16:41:54;;;;;;;5.23;3.60;;;;;;;;;;6265383;28;20067;-76
2022/06/09 16:44:54;;;;;;;5.30;3.40;;;;;;;;;;6263328;28;20020;-76
2022/06/09 16:47:55;;;;;;;6.70;3.10;;;;;;;;;;6262594;28;20020;-76
2022/06/09 16:50:55;;;;;;;5.17;3.27;;;;;;;;;;6262574;28;20021;-76
2022/06/09 16:53:55;;;;;;;4.43;2.83;;;;;;;;;;6260244;28;20024;-76
2022/06/09 16:56:55;;;;;;;6.03;3.30;;;;;;;;;;6260076;28;20082;-76
2022/06/09 16:59:56;;;;;;;4.60;2.97;;;;;;;;;;6264209;28;20517;-76
2022/06/09 17:02:57;;;;;;;4.47;3.08;;;;;;;;;;6259938;28;20083;-76
2022/06/09 17:05:58;;;;;;;4.27;3.00;;;;;;;;;;6261741;28;20052;-76
2022/06/09 17:09:00;;;;;;;5.63;3.60;;;;;;;;;;6265397;28;20025;-76
2022/06/09 17:12:01;;;;;;;5.50;3.42;;;;;;;;;;6283456;28;20021;-76
2022/06/09 17:15:01;;;;;;;5.13;3.77;;;;;;;;;;6279476;28;20021;-76
2022/06/09 17:18:02;;;;;;;5.33;3.33;;;;;;;;;;6266462;28;20024;-76
2022/06/09 17:21:03;;;;;;;7.80;4.67;;;;;;;;;;6267308;28;20072;-77
2022/06/09 17:24:05;;;;;;;5.10;3.45;;;;;;;;;;6252524;28;20048;-76
2022/06/09 17:27:06;;;;;;;6.67;4.00;;;;;;;;;;6282373;28;20032;-77
2022/06/09 17:30:08;;;;;;;5.40;3.83;;;;;;;;;;6269644;28;20021;-77
2022/06/09 17:33:09;;;;;;;6.28;3.88;;;;;;;;;;6270163;28;20024;-77
2022/06/09 17:36:09;;;;;;;6.37;3.93;;;;;;;;;;6271102;28;20025;-77
2022/06/09 17:39:11;;;;;;;5.60;3.43;;;;;;;;;;6270734;28;20495;-76
2022/06/09 17:42:11;;;;;;;6.15;3.72;;;;;;;;;;6269724;28;20021;-77
2022/06/09 17:45:12;;;;;;;7.57;4.07;;;;;;;;;;6270823;28;20032;-77
2022/06/09 17:48:13;;;;;;;4.75;3.65;;;;;;;;;;6263929;28;20009;-76
2022/06/09 17:51:14;;;;;;;6.37;4.10;;;;;;;;;;6265518;28;20017;-76
2022/06/09 17:54:14;;;;;;;10.37;6.53;;;;;;;;;;6254604;28;20280;-77
2022/06/09 17:57:15;;;;;;;7.43;4.73;;;;;;;;;;6258238;28;20023;-77
2022/06/09 18:00:24;;;;;;;6.83;4.53;;;;;;;;;;6264397;28;20030;-79
2022/06/09 18:03:24;;;;;;;10.48;6.03;;;;;;;;;;6271467;28;20025;-80
2022/06/09 18:06:25;;;;;;;8.80;5.17;;;;;;;;;;6273070;28;20063;-79
2022/06/09 18:09:25;;;;;;;7.17;4.73;;;;;;;;;;6275189;28;20015;-80
2022/06/09 18:12:25;;;;;;;8.70;4.60;;;;;;;;;;6274795;28;20100;-80
2022/06/09 18:15:31;;;;;;;12.13;6.80;;;;;;;;;;6276439;28;20139;-80
2022/06/09 18:18:32;;;;;;;10.05;5.97;;;;;;;;;;6259746;28;20036;-82